sensor_id;sensor_type;location;lat;lon;timestamp;P1;durP1;ratioP1;P2;durP2;ratioP2
19482;SDS011;9882;51.166;6.992;2023-05-10T00:01:13;12.50;;;5.22;;
19482;SDS011;9882;51.166;6.992;2023-05-10T00:03:42;17.70;;;5.68;;
19482;SDS011;9882;51.166;6.992;2023-05-10T00:06:11;21.10;;;7.80;;
19482;SDS011;9882;51.166;6.992;2023-05-10T00:08:40;18.75;;;6.65;;
19482;SDS011;9882;51.166;6.992;2023-05-10T00:11:09;15.90;;;6.30;;
19482;SDS011;9882;51.166;6.992;2023-05-10T00:13:37;21.63;;;8.07;;
19482;SDS011;9882;51.166;6.992;2023-05-10T00:16:06;23.80;;;8.88;;
19482;SDS011;9882;51.166;6.992;2023-05-10T00:18:34;21.35;;;8.25;;
19482;SDS011;9882;51.166;6.992;2023-05-10T00:21:03;15.68;;;5.25;;
19482;SDS011;9882;51.166;6.992;2023-05-10T00:23:34;22.15;;;8.65;;
19482;SDS011;9882;51.166;6.992;2023-05-10T00:26:02;26.02;;;8.90;;
19482;SDS011;9882;51.166;6.992;2023-05-10T00:28:31;20.88;;;7.40;;
19482;SDS011;9882;51.166;6.992;2023-05-10T00:30:59;18.08;;;6.85;;
19482;SDS011;9882;51.166;6.992;2023-05-10T00:33:29;18.88;;;6.90;;
19482;SDS011;9882;51.166;6.992;2023-05-10T00:35:57;25.42;;;9.15;;
19482;SDS011;9882;51.166;6.992;2023-05-10T00:38:26;19.80;;;6.85;;
19482;SDS011;9882;51.166;6.992;2023-05-10T00:40:55;25.23;;;8.98;;
19482;SDS011;9882;51.166;6.992;2023-05-10T00:43:29;21.42;;;8.13;;
19482;SDS011;9882;51.166;6.992;2023-05-10T00:45:57;19.27;;;7.57;;
19482;SDS011;9882;51.166;6.992;2023-05-10T00:48:26;22.58;;;8.82;;
19482;SDS011;9882;51.166;6.992;2023-05-10T00:50:54;19.92;;;7.05;;
19482;SDS011;9882;51.166;6.992;2023-05-10T00:53:23;26.08;;;8.48;;
19482;SDS011;9882;51.166;6.992;2023-05-10T00:55:52;24.50;;;9.48;;
19482;SDS011;9882;51.166;6.992;2023-05-10T00:58:22;22.45;;;8.23;;
19482;SDS011;9882;51.166;6.992;2023-05-10T01:00:54;27.55;;;10.13;;
19482;SDS011;9882;51.166;6.992;2023-05-10T01:03:24;22.88;;;8.30;;
19482;SDS011;9882;51.166;6.992;2023-05-10T01:05:52;20.05;;;7.38;;
19482;SDS011;9882;51.166;6.992;2023-05-10T01:08:21;23.02;;;8.10;;
19482;SDS011;9882;51.166;6.992;2023-05-10T01:10:50;18.20;;;7.22;;
19482;SDS011;9882;51.166;6.992;2023-05-10T01:13:26;19.50;;;7.57;;
19482;SDS011;9882;51.166;6.992;2023-05-10T01:15:59;23.67;;;8.85;;
19482;SDS011;9882;51.166;6.992;2023-05-10T01:18:29;27.50;;;9.98;;
19482;SDS011;9882;51.166;6.992;2023-05-10T01:21:04;19.60;;;7.50;;
19482;SDS011;9882;51.166;6.992;2023-05-10T01:32:57;20.77;;;7.90;;
19482;SDS011;9882;51.166;6.992;2023-05-10T01:35:30;23.00;;;8.50;;
19482;SDS011;9882;51.166;6.992;2023-05-10T01:38:07;27.17;;;9.43;;
19482;SDS011;9882;51.166;6.992;2023-05-10T01:40:45;21.70;;;8.00;;
19482;SDS011;9882;51.166;6.992;2023-05-10T01:43:19;24.42;;;8.27;;
19482;SDS011;9882;51.166;6.992;2023-05-10T01:45:55;21.15;;;7.97;;
19482;SDS011;9882;51.166;6.992;2023-05-10T01:48:32;20.10;;;7.85;;
19482;SDS011;9882;51.166;6.992;2023-05-10T01:51:01;22.25;;;8.25;;
19482;SDS011;9882;51.166;6.992;2023-05-10T01:53:32;20.05;;;7.47;;
19482;SDS011;9882;51.166;6.992;2023-05-10T01:56:03;17.10;;;6.63;;
19482;SDS011;9882;51.166;6.992;2023-05-10T01:58:33;17.20;;;6.70;;
19482;SDS011;9882;51.166;6.992;2023-05-10T02:01:06;19.40;;;6.68;;
19482;SDS011;9882;51.166;6.992;2023-05-10T02:03:37;25.67;;;7.60;;
19482;SDS011;9882;51.166;6.992;2023-05-10T02:06:08;20.85;;;7.03;;
19482;SDS011;9882;51.166;6.992;2023-05-10T02:08:38;21.40;;;7.10;;
19482;SDS011;9882;51.166;6.992;2023-05-10T02:11:07;18.05;;;6.47;;
19482;SDS011;9882;51.166;6.992;2023-05-10T02:13:39;22.17;;;7.22;;
19482;SDS011;9882;51.166;6.992;2023-05-10T02:16:10;18.92;;;7.10;;
19482;SDS011;9882;51.166;6.992;2023-05-10T02:18:41;20.10;;;6.57;;
19482;SDS011;9882;51.166;6.992;2023-05-10T02:21:11;22.90;;;7.50;;
19482;SDS011;9882;51.166;6.992;2023-05-10T02:23:42;21.98;;;7.93;;
19482;SDS011;9882;51.166;6.992;2023-05-10T02:26:11;20.85;;;7.55;;
19482;SDS011;9882;51.166;6.992;2023-05-10T02:28:41;24.02;;;8.20;;
19482;SDS011;9882;51.166;6.992;2023-05-10T02:31:10;24.67;;;8.50;;
19482;SDS011;9882;51.166;6.992;2023-05-10T02:33:39;28.02;;;8.32;;
19482;SDS011;9882;51.166;6.992;2023-05-10T02:36:11;24.02;;;7.88;;
19482;SDS011;9882;51.166;6.992;2023-05-10T02:38:41;21.98;;;7.05;;
19482;SDS011;9882;51.166;6.992;2023-05-10T02:41:11;22.15;;;8.23;;
19482;SDS011;9882;51.166;6.992;2023-05-10T02:43:41;17.33;;;6.65;;
19482;SDS011;9882;51.166;6.992;2023-05-10T02:46:10;20.17;;;7.00;;
19482;SDS011;9882;51.166;6.992;2023-05-10T02:48:38;20.30;;;7.00;;
19482;SDS011;9882;51.166;6.992;2023-05-10T02:51:09;16.92;;;6.03;;
19482;SDS011;9882;51.166;6.992;2023-05-10T02:53:44;17.65;;;5.72;;
19482;SDS011;9882;51.166;6.992;2023-05-10T02:56:15;14.43;;;5.43;;
19482;SDS011;9882;51.166;6.992;2023-05-10T02:58:51;16.75;;;5.80;;
19482;SDS011;9882;51.166;6.992;2023-05-10T03:01:20;14.60;;;5.63;;
19482;SDS011;9882;51.166;6.992;2023-05-10T03:03:49;13.57;;;6.00;;
19482;SDS011;9882;51.166;6.992;2023-05-10T03:06:18;13.13;;;5.10;;
19482;SDS011;9882;51.166;6.992;2023-05-10T03:08:47;12.60;;;5.30;;
19482;SDS011;9882;51.166;6.992;2023-05-10T03:11:19;18.38;;;7.38;;
19482;SDS011;9882;51.166;6.992;2023-05-10T03:14:04;13.93;;;5.43;;
19482;SDS011;9882;51.166;6.992;2023-05-10T03:16:42;14.40;;;5.75;;
19482;SDS011;9882;51.166;6.992;2023-05-10T03:19:16;18.80;;;6.45;;
19482;SDS011;9882;51.166;6.992;2023-05-10T03:21:55;22.50;;;7.78;;
19482;SDS011;9882;51.166;6.992;2023-05-10T03:24:31;14.63;;;5.32;;
19482;SDS011;9882;51.166;6.992;2023-05-10T03:27:02;17.88;;;6.18;;
19482;SDS011;9882;51.166;6.992;2023-05-10T03:29:34;15.77;;;5.80;;
19482;SDS011;9882;51.166;6.992;2023-05-10T03:32:04;13.93;;;5.50;;
19482;SDS011;9882;51.166;6.992;2023-05-10T03:34:32;16.17;;;5.78;;
19482;SDS011;9882;51.166;6.992;2023-05-10T03:37:02;14.88;;;5.20;;
19482;SDS011;9882;51.166;6.992;2023-05-10T03:39:31;14.55;;;5.80;;
19482;SDS011;9882;51.166;6.992;2023-05-10T03:42:01;18.42;;;6.38;;
19482;SDS011;9882;51.166;6.992;2023-05-10T03:44:30;18.58;;;6.22;;
19482;SDS011;9882;51.166;6.992;2023-05-10T03:46:59;19.27;;;6.47;;
19482;SDS011;9882;51.166;6.992;2023-05-10T03:49:28;21.05;;;7.10;;
19482;SDS011;9882;51.166;6.992;2023-05-10T03:51:56;23.85;;;8.43;;
19482;SDS011;9882;51.166;6.992;2023-05-10T03:54:27;19.00;;;7.53;;
19482;SDS011;9882;51.166;6.992;2023-05-10T03:56:56;19.83;;;7.05;;
19482;SDS011;9882;51.166;6.992;2023-05-10T03:59:24;19.75;;;6.55;;
19482;SDS011;9882;51.166;6.992;2023-05-10T04:01:53;18.98;;;6.22;;
19482;SDS011;9882;51.166;6.992;2023-05-10T04:04:21;16.30;;;5.55;;
19482;SDS011;9882;51.166;6.992;2023-05-10T04:06:50;22.75;;;8.23;;
19482;SDS011;9882;51.166;6.992;2023-05-10T04:09:18;16.15;;;5.88;;
19482;SDS011;9882;51.166;6.992;2023-05-10T04:11:48;18.67;;;6.20;;
19482;SDS011;9882;51.166;6.992;2023-05-10T04:14:17;17.75;;;6.50;;
19482;SDS011;9882;51.166;6.992;2023-05-10T04:16:45;19.33;;;6.35;;
19482;SDS011;9882;51.166;6.992;2023-05-10T04:19:14;21.80;;;7.22;;
19482;SDS011;9882;51.166;6.992;2023-05-10T04:21:42;20.80;;;7.88;;
19482;SDS011;9882;51.166;6.992;2023-05-10T04:24:14;21.27;;;7.03;;
19482;SDS011;9882;51.166;6.992;2023-05-10T04:26:58;24.08;;;7.70;;
19482;SDS011;9882;51.166;6.992;2023-05-10T04:29:27;24.98;;;8.80;;
19482;SDS011;9882;51.166;6.992;2023-05-10T04:31:58;18.23;;;7.15;;
19482;SDS011;9882;51.166;6.992;2023-05-10T04:34:27;23.27;;;7.50;;
19482;SDS011;9882;51.166;6.992;2023-05-10T04:37:01;24.58;;;7.70;;
19482;SDS011;9882;51.166;6.992;2023-05-10T04:39:29;14.80;;;6.30;;
19482;SDS011;9882;51.166;6.992;2023-05-10T04:41:59;20.98;;;6.90;;
19482;SDS011;9882;51.166;6.992;2023-05-10T04:44:53;25.95;;;8.75;;
19482;SDS011;9882;51.166;6.992;2023-05-10T04:47:26;29.50;;;9.10;;
19482;SDS011;9882;51.166;6.992;2023-05-10T04:50:04;23.25;;;8.85;;
19482;SDS011;9882;51.166;6.992;2023-05-10T04:52:37;26.27;;;9.20;;
19482;SDS011;9882;51.166;6.992;2023-05-10T04:55:15;29.77;;;10.05;;
19482;SDS011;9882;51.166;6.992;2023-05-10T04:57:45;26.45;;;9.00;;
19482;SDS011;9882;51.166;6.992;2023-05-10T05:00:14;33.40;;;11.25;;
19482;SDS011;9882;51.166;6.992;2023-05-10T05:02:46;25.95;;;9.32;;
19482;SDS011;9882;51.166;6.992;2023-05-10T05:05:18;30.13;;;11.93;;
19482;SDS011;9882;51.166;6.992;2023-05-10T05:07:47;30.40;;;10.95;;
19482;SDS011;9882;51.166;6.992;2023-05-10T05:10:20;22.33;;;7.88;;
19482;SDS011;9882;51.166;6.992;2023-05-10T05:12:54;26.90;;;9.57;;
19482;SDS011;9882;51.166;6.992;2023-05-10T05:15:22;23.85;;;8.32;;
19482;SDS011;9882;51.166;6.992;2023-05-10T05:17:51;28.23;;;10.25;;
19482;SDS011;9882;51.166;6.992;2023-05-10T05:20:19;22.13;;;7.95;;
19482;SDS011;9882;51.166;6.992;2023-05-10T05:22:48;36.22;;;12.48;;
19482;SDS011;9882;51.166;6.992;2023-05-10T05:25:19;31.15;;;11.45;;
19482;SDS011;9882;51.166;6.992;2023-05-10T05:27:48;31.33;;;9.43;;
19482;SDS011;9882;51.166;6.992;2023-05-10T05:30:18;29.33;;;10.10;;
19482;SDS011;9882;51.166;6.992;2023-05-10T05:32:46;28.48;;;11.35;;
19482;SDS011;9882;51.166;6.992;2023-05-10T05:35:15;38.20;;;13.63;;
19482;SDS011;9882;51.166;6.992;2023-05-10T05:37:43;31.90;;;10.52;;
19482;SDS011;9882;51.166;6.992;2023-05-10T05:40:12;26.80;;;9.40;;
19482;SDS011;9882;51.166;6.992;2023-05-10T05:42:41;28.15;;;11.43;;
19482;SDS011;9882;51.166;6.992;2023-05-10T05:45:09;31.40;;;11.93;;
19482;SDS011;9882;51.166;6.992;2023-05-10T05:47:41;35.40;;;11.88;;
19482;SDS011;9882;51.166;6.992;2023-05-10T05:50:09;32.67;;;11.73;;
19482;SDS011;9882;51.166;6.992;2023-05-10T05:52:38;32.90;;;11.73;;
19482;SDS011;9882;51.166;6.992;2023-05-10T05:55:07;27.23;;;9.80;;
19482;SDS011;9882;51.166;6.992;2023-05-10T05:57:35;33.97;;;11.38;;
19482;SDS011;9882;51.166;6.992;2023-05-10T06:00:04;22.88;;;8.98;;
19482;SDS011;9882;51.166;6.992;2023-05-10T06:02:41;32.00;;;11.70;;
19482;SDS011;9882;51.166;6.992;2023-05-10T06:05:09;30.60;;;11.83;;
19482;SDS011;9882;51.166;6.992;2023-05-10T06:07:38;92.13;;;28.35;;
19482;SDS011;9882;51.166;6.992;2023-05-10T06:10:08;46.25;;;15.27;;
19482;SDS011;9882;51.166;6.992;2023-05-10T06:12:37;28.02;;;10.70;;
19482;SDS011;9882;51.166;6.992;2023-05-10T06:15:06;37.22;;;12.48;;
19482;SDS011;9882;51.166;6.992;2023-05-10T06:17:36;29.63;;;11.13;;
19482;SDS011;9882;51.166;6.992;2023-05-10T06:20:07;27.45;;;10.23;;
19482;SDS011;9882;51.166;6.992;2023-05-10T06:22:36;28.52;;;11.25;;
19482;SDS011;9882;51.166;6.992;2023-05-10T06:25:05;29.38;;;10.43;;
19482;SDS011;9882;51.166;6.992;2023-05-10T06:27:35;29.00;;;10.27;;
19482;SDS011;9882;51.166;6.992;2023-05-10T06:30:03;31.38;;;11.98;;
19482;SDS011;9882;51.166;6.992;2023-05-10T06:32:38;36.97;;;11.55;;
19482;SDS011;9882;51.166;6.992;2023-05-10T06:35:08;27.20;;;10.38;;
19482;SDS011;9882;51.166;6.992;2023-05-10T06:37:37;34.90;;;12.50;;
19482;SDS011;9882;51.166;6.992;2023-05-10T06:40:06;29.27;;;11.07;;
19482;SDS011;9882;51.166;6.992;2023-05-10T06:42:35;36.45;;;12.65;;
19482;SDS011;9882;51.166;6.992;2023-05-10T06:45:04;34.28;;;12.93;;
19482;SDS011;9882;51.166;6.992;2023-05-10T06:47:35;34.53;;;12.18;;
19482;SDS011;9882;51.166;6.992;2023-05-10T06:50:05;32.55;;;11.57;;
19482;SDS011;9882;51.166;6.992;2023-05-10T06:52:36;34.95;;;12.60;;
19482;SDS011;9882;51.166;6.992;2023-05-10T06:55:04;38.90;;;13.05;;
19482;SDS011;9882;51.166;6.992;2023-05-10T06:57:33;30.75;;;11.90;;
19482;SDS011;9882;51.166;6.992;2023-05-10T07:00:02;33.10;;;12.77;;
19482;SDS011;9882;51.166;6.992;2023-05-10T07:02:32;26.20;;;11.13;;
19482;SDS011;9882;51.166;6.992;2023-05-10T07:05:00;31.08;;;10.98;;
19482;SDS011;9882;51.166;6.992;2023-05-10T07:07:29;39.72;;;12.98;;
19482;SDS011;9882;51.166;6.992;2023-05-10T07:09:59;38.80;;;12.65;;
19482;SDS011;9882;51.166;6.992;2023-05-10T07:12:27;30.92;;;11.38;;
19482;SDS011;9882;51.166;6.992;2023-05-10T07:14:56;30.63;;;10.77;;
19482;SDS011;9882;51.166;6.992;2023-05-10T07:17:24;30.88;;;12.10;;
19482;SDS011;9882;51.166;6.992;2023-05-10T07:19:53;34.67;;;12.57;;
19482;SDS011;9882;51.166;6.992;2023-05-10T07:22:21;28.13;;;10.13;;
19482;SDS011;9882;51.166;6.992;2023-05-10T07:24:50;31.33;;;10.98;;
19482;SDS011;9882;51.166;6.992;2023-05-10T07:27:19;53.10;;;14.20;;
19482;SDS011;9882;51.166;6.992;2023-05-10T07:29:48;40.55;;;13.57;;
19482;SDS011;9882;51.166;6.992;2023-05-10T07:32:16;38.53;;;13.43;;
19482;SDS011;9882;51.166;6.992;2023-05-10T07:34:45;37.00;;;14.18;;
19482;SDS011;9882;51.166;6.992;2023-05-10T07:37:13;39.92;;;14.05;;
19482;SDS011;9882;51.166;6.992;2023-05-10T07:39:41;41.83;;;14.93;;
19482;SDS011;9882;51.166;6.992;2023-05-10T07:42:10;42.03;;;13.88;;
19482;SDS011;9882;51.166;6.992;2023-05-10T07:44:40;40.15;;;11.95;;
19482;SDS011;9882;51.166;6.992;2023-05-10T07:47:08;38.00;;;14.13;;
19482;SDS011;9882;51.166;6.992;2023-05-10T07:49:37;40.95;;;14.32;;
19482;SDS011;9882;51.166;6.992;2023-05-10T07:52:06;39.05;;;14.25;;
19482;SDS011;9882;51.166;6.992;2023-05-10T07:54:34;38.35;;;13.07;;
19482;SDS011;9882;51.166;6.992;2023-05-10T07:57:04;35.72;;;12.95;;
19482;SDS011;9882;51.166;6.992;2023-05-10T07:59:32;42.22;;;14.18;;
19482;SDS011;9882;51.166;6.992;2023-05-10T08:02:02;33.85;;;13.10;;
19482;SDS011;9882;51.166;6.992;2023-05-10T08:04:31;38.65;;;12.45;;
19482;SDS011;9882;51.166;6.992;2023-05-10T08:06:59;32.88;;;12.20;;
19482;SDS011;9882;51.166;6.992;2023-05-10T08:09:28;36.70;;;12.77;;
19482;SDS011;9882;51.166;6.992;2023-05-10T08:11:56;34.03;;;12.30;;
19482;SDS011;9882;51.166;6.992;2023-05-10T08:14:26;37.53;;;12.43;;
19482;SDS011;9882;51.166;6.992;2023-05-10T08:16:56;39.80;;;12.98;;
19482;SDS011;9882;51.166;6.992;2023-05-10T08:19:25;55.03;;;14.07;;
19482;SDS011;9882;51.166;6.992;2023-05-10T08:21:54;39.15;;;12.63;;
19482;SDS011;9882;51.166;6.992;2023-05-10T08:24:23;35.13;;;11.48;;
19482;SDS011;9882;51.166;6.992;2023-05-10T08:26:52;36.13;;;12.27;;
19482;SDS011;9882;51.166;6.992;2023-05-10T08:29:20;44.30;;;13.50;;
19482;SDS011;9882;51.166;6.992;2023-05-10T08:31:48;41.70;;;13.32;;
19482;SDS011;9882;51.166;6.992;2023-05-10T08:34:17;35.90;;;12.73;;
19482;SDS011;9882;51.166;6.992;2023-05-10T08:36:47;36.53;;;12.32;;
19482;SDS011;9882;51.166;6.992;2023-05-10T08:39:15;34.58;;;12.82;;
19482;SDS011;9882;51.166;6.992;2023-05-10T08:41:49;32.78;;;11.35;;
19482;SDS011;9882;51.166;6.992;2023-05-10T08:44:19;34.00;;;11.70;;
19482;SDS011;9882;51.166;6.992;2023-05-10T08:46:48;37.20;;;13.25;;
19482;SDS011;9882;51.166;6.992;2023-05-10T08:49:21;40.72;;;14.23;;
19482;SDS011;9882;51.166;6.992;2023-05-10T08:51:53;40.95;;;13.57;;
19482;SDS011;9882;51.166;6.992;2023-05-10T08:54:25;51.45;;;13.90;;
19482;SDS011;9882;51.166;6.992;2023-05-10T08:56:54;46.90;;;14.90;;
19482;SDS011;9882;51.166;6.992;2023-05-10T08:59:23;46.03;;;17.65;;
19482;SDS011;9882;51.166;6.992;2023-05-10T09:01:52;50.35;;;17.50;;
19482;SDS011;9882;51.166;6.992;2023-05-10T09:04:23;43.25;;;15.63;;
19482;SDS011;9882;51.166;6.992;2023-05-10T09:06:53;44.70;;;17.67;;
19482;SDS011;9882;51.166;6.992;2023-05-10T09:09:22;43.55;;;17.67;;
19482;SDS011;9882;51.166;6.992;2023-05-10T09:11:53;48.92;;;17.27;;
19482;SDS011;9882;51.166;6.992;2023-05-10T09:14:22;46.25;;;18.35;;
19482;SDS011;9882;51.166;6.992;2023-05-10T09:16:52;65.80;;;18.02;;
19482;SDS011;9882;51.166;6.992;2023-05-10T09:19:22;49.15;;;17.73;;
19482;SDS011;9882;51.166;6.992;2023-05-10T09:21:50;47.17;;;17.98;;
19482;SDS011;9882;51.166;6.992;2023-05-10T09:24:20;47.63;;;18.05;;
19482;SDS011;9882;51.166;6.992;2023-05-10T09:26:53;56.13;;;20.45;;
19482;SDS011;9882;51.166;6.992;2023-05-10T09:29:23;51.92;;;21.08;;
19482;SDS011;9882;51.166;6.992;2023-05-10T09:31:52;50.65;;;18.90;;
19482;SDS011;9882;51.166;6.992;2023-05-10T09:34:32;51.28;;;19.90;;
19482;SDS011;9882;51.166;6.992;2023-05-10T09:37:02;54.70;;;19.92;;
19482;SDS011;9882;51.166;6.992;2023-05-10T09:39:32;51.03;;;19.40;;
19482;SDS011;9882;51.166;6.992;2023-05-10T09:42:02;54.85;;;19.45;;
19482;SDS011;9882;51.166;6.992;2023-05-10T09:44:32;56.45;;;19.25;;
19482;SDS011;9882;51.166;6.992;2023-05-10T09:47:02;50.70;;;19.70;;
19482;SDS011;9882;51.166;6.992;2023-05-10T09:49:30;46.63;;;17.60;;
19482;SDS011;9882;51.166;6.992;2023-05-10T09:52:00;50.17;;;19.65;;
19482;SDS011;9882;51.166;6.992;2023-05-10T09:54:30;50.85;;;19.20;;
19482;SDS011;9882;51.166;6.992;2023-05-10T09:57:00;49.25;;;17.73;;
19482;SDS011;9882;51.166;6.992;2023-05-10T09:59:29;42.78;;;17.75;;
19482;SDS011;9882;51.166;6.992;2023-05-10T10:01:58;53.33;;;18.45;;
19482;SDS011;9882;51.166;6.992;2023-05-10T10:04:27;47.25;;;18.92;;
19482;SDS011;9882;51.166;6.992;2023-05-10T10:07:00;46.80;;;18.75;;
19482;SDS011;9882;51.166;6.992;2023-05-10T10:09:30;51.50;;;18.08;;
19482;SDS011;9882;51.166;6.992;2023-05-10T10:12:00;48.08;;;17.77;;
19482;SDS011;9882;51.166;6.992;2023-05-10T10:14:30;43.50;;;17.63;;
19482;SDS011;9882;51.166;6.992;2023-05-10T10:17:00;47.80;;;18.15;;
19482;SDS011;9882;51.166;6.992;2023-05-10T10:19:32;48.28;;;17.45;;
19482;SDS011;9882;51.166;6.992;2023-05-10T10:22:02;51.03;;;17.20;;
19482;SDS011;9882;51.166;6.992;2023-05-10T10:24:31;43.63;;;15.85;;
19482;SDS011;9882;51.166;6.992;2023-05-10T10:27:02;38.28;;;15.02;;
19482;SDS011;9882;51.166;6.992;2023-05-10T10:29:39;39.20;;;14.93;;
19482;SDS011;9882;51.166;6.992;2023-05-10T10:32:21;43.20;;;14.60;;
19482;SDS011;9882;51.166;6.992;2023-05-10T10:34:58;32.60;;;13.75;;
19482;SDS011;9882;51.166;6.992;2023-05-10T10:37:40;40.83;;;14.93;;
19482;SDS011;9882;51.166;6.992;2023-05-10T10:40:22;36.50;;;14.45;;
19482;SDS011;9882;51.166;6.992;2023-05-10T10:42:53;36.38;;;14.20;;
19482;SDS011;9882;51.166;6.992;2023-05-10T10:45:24;37.13;;;13.63;;
19482;SDS011;9882;51.166;6.992;2023-05-10T10:47:54;49.83;;;14.60;;
19482;SDS011;9882;51.166;6.992;2023-05-10T10:50:55;34.08;;;14.02;;
19482;SDS011;9882;51.166;6.992;2023-05-10T10:53:25;36.65;;;13.30;;
19482;SDS011;9882;51.166;6.992;2023-05-10T10:56:02;32.95;;;13.25;;
19482;SDS011;9882;51.166;6.992;2023-05-10T10:58:36;36.42;;;13.50;;
19482;SDS011;9882;51.166;6.992;2023-05-10T11:01:12;35.35;;;13.00;;
19482;SDS011;9882;51.166;6.992;2023-05-10T11:03:54;37.17;;;13.52;;
19482;SDS011;9882;51.166;6.992;2023-05-10T11:06:38;33.08;;;12.25;;
19482;SDS011;9882;51.166;6.992;2023-05-10T11:09:07;28.77;;;10.82;;
19482;SDS011;9882;51.166;6.992;2023-05-10T11:11:37;32.97;;;12.13;;
19482;SDS011;9882;51.166;6.992;2023-05-10T11:14:35;32.10;;;11.85;;
19482;SDS011;9882;51.166;6.992;2023-05-10T11:20:09;28.88;;;10.88;;
19482;SDS011;9882;51.166;6.992;2023-05-10T11:22:52;31.80;;;11.10;;
19482;SDS011;9882;51.166;6.992;2023-05-10T11:25:32;27.70;;;11.65;;
19482;SDS011;9882;51.166;6.992;2023-05-10T11:28:20;28.88;;;11.38;;
19482;SDS011;9882;51.166;6.992;2023-05-10T11:30:54;29.17;;;11.38;;
19482;SDS011;9882;51.166;6.992;2023-05-10T11:33:30;30.48;;;11.25;;
19482;SDS011;9882;51.166;6.992;2023-05-10T11:37:04;31.50;;;11.60;;
19482;SDS011;9882;51.166;6.992;2023-05-10T11:39:49;31.10;;;11.48;;
19482;SDS011;9882;51.166;6.992;2023-05-10T11:42:22;34.00;;;13.27;;
19482;SDS011;9882;51.166;6.992;2023-05-10T11:44:50;33.92;;;13.10;;
19482;SDS011;9882;51.166;6.992;2023-05-10T11:47:27;33.70;;;12.82;;
19482;SDS011;9882;51.166;6.992;2023-05-10T11:50:19;29.10;;;12.32;;
19482;SDS011;9882;51.166;6.992;2023-05-10T11:53:06;33.85;;;11.63;;
19482;SDS011;9882;51.166;6.992;2023-05-10T11:58:56;32.25;;;11.60;;
19482;SDS011;9882;51.166;6.992;2023-05-10T12:01:27;35.13;;;13.02;;
19482;SDS011;9882;51.166;6.992;2023-05-10T12:04:22;36.75;;;13.05;;
19482;SDS011;9882;51.166;6.992;2023-05-10T12:07:34;34.80;;;13.02;;
19482;SDS011;9882;51.166;6.992;2023-05-10T12:11:16;35.67;;;12.23;;
19482;SDS011;9882;51.166;6.992;2023-05-10T12:17:28;32.05;;;11.98;;
19482;SDS011;9882;51.166;6.992;2023-05-10T12:35:29;30.90;;;12.20;;
19482;SDS011;9882;51.166;6.992;2023-05-10T12:38:49;34.97;;;12.20;;
19482;SDS011;9882;51.166;6.992;2023-05-10T12:41:44;31.27;;;12.13;;
19482;SDS011;9882;51.166;6.992;2023-05-10T12:54:41;31.08;;;12.02;;
19482;SDS011;9882;51.166;6.992;2023-05-10T12:57:27;33.72;;;12.63;;
19482;SDS011;9882;51.166;6.992;2023-05-10T13:00:00;30.33;;;10.90;;
19482;SDS011;9882;51.166;6.992;2023-05-10T13:02:36;32.53;;;12.05;;
19482;SDS011;9882;51.166;6.992;2023-05-10T13:05:23;34.55;;;12.13;;
19482;SDS011;9882;51.166;6.992;2023-05-10T13:08:02;32.83;;;12.02;;
19482;SDS011;9882;51.166;6.992;2023-05-10T13:28:32;32.28;;;12.77;;
19482;SDS011;9882;51.166;6.992;2023-05-10T13:31:27;38.20;;;15.85;;
19482;SDS011;9882;51.166;6.992;2023-05-10T13:42:37;35.50;;;13.32;;
19482;SDS011;9882;51.166;6.992;2023-05-10T13:58:31;43.20;;;15.60;;
19482;SDS011;9882;51.166;6.992;2023-05-10T14:01:02;28.38;;;11.85;;
19482;SDS011;9882;51.166;6.992;2023-05-10T14:03:42;84.57;;;18.70;;
19482;SDS011;9882;51.166;6.992;2023-05-10T14:11:38;68.28;;;17.95;;
19482;SDS011;9882;51.166;6.992;2023-05-10T14:17:52;36.45;;;13.57;;
19482;SDS011;9882;51.166;6.992;2023-05-10T14:28:16;34.55;;;13.73;;
19482;SDS011;9882;51.166;6.992;2023-05-10T14:30:47;39.63;;;13.57;;
19482;SDS011;9882;51.166;6.992;2023-05-10T14:36:26;38.63;;;14.02;;
19482;SDS011;9882;51.166;6.992;2023-05-10T14:40:00;46.80;;;15.05;;
19482;SDS011;9882;51.166;6.992;2023-05-10T14:43:11;33.60;;;14.50;;
19482;SDS011;9882;51.166;6.992;2023-05-10T14:47:18;45.63;;;15.60;;
19482;SDS011;9882;51.166;6.992;2023-05-10T14:53:36;31.50;;;11.13;;
19482;SDS011;9882;51.166;6.992;2023-05-10T14:59:58;27.15;;;8.85;;
19482;SDS011;9882;51.166;6.992;2023-05-10T15:11:17;27.75;;;9.20;;
19482;SDS011;9882;51.166;6.992;2023-05-10T15:13:46;22.90;;;8.23;;
19482;SDS011;9882;51.166;6.992;2023-05-10T15:16:14;22.58;;;8.85;;
19482;SDS011;9882;51.166;6.992;2023-05-10T15:18:43;23.65;;;7.85;;
19482;SDS011;9882;51.166;6.992;2023-05-10T15:21:11;21.33;;;6.88;;
19482;SDS011;9882;51.166;6.992;2023-05-10T15:23:40;23.70;;;8.07;;
19482;SDS011;9882;51.166;6.992;2023-05-10T15:26:08;21.55;;;7.55;;
19482;SDS011;9882;51.166;6.992;2023-05-10T15:28:38;24.48;;;8.57;;
19482;SDS011;9882;51.166;6.992;2023-05-10T15:31:06;23.88;;;7.65;;
19482;SDS011;9882;51.166;6.992;2023-05-10T15:33:36;27.30;;;7.45;;
19482;SDS011;9882;51.166;6.992;2023-05-10T15:36:05;28.35;;;9.00;;
19482;SDS011;9882;51.166;6.992;2023-05-10T15:38:34;26.15;;;8.18;;
19482;SDS011;9882;51.166;6.992;2023-05-10T15:41:04;22.35;;;7.25;;
19482;SDS011;9882;51.166;6.992;2023-05-10T15:43:32;20.83;;;7.25;;
19482;SDS011;9882;51.166;6.992;2023-05-10T15:46:03;23.00;;;8.13;;
19482;SDS011;9882;51.166;6.992;2023-05-10T15:48:32;21.30;;;7.45;;
19482;SDS011;9882;51.166;6.992;2023-05-10T15:51:01;19.58;;;6.75;;
19482;SDS011;9882;51.166;6.992;2023-05-10T15:53:29;20.55;;;6.68;;
19482;SDS011;9882;51.166;6.992;2023-05-10T15:55:58;22.60;;;6.07;;
19482;SDS011;9882;51.166;6.992;2023-05-10T15:58:26;48.42;;;8.20;;
19482;SDS011;9882;51.166;6.992;2023-05-10T16:00:55;22.10;;;6.88;;
19482;SDS011;9882;51.166;6.992;2023-05-10T16:03:25;27.02;;;6.82;;
19482;SDS011;9882;51.166;6.992;2023-05-10T16:05:54;23.27;;;6.90;;
19482;SDS011;9882;51.166;6.992;2023-05-10T16:08:22;22.83;;;7.97;;
19482;SDS011;9882;51.166;6.992;2023-05-10T16:10:51;20.77;;;7.18;;
19482;SDS011;9882;51.166;6.992;2023-05-10T16:13:20;23.83;;;7.07;;
19482;SDS011;9882;51.166;6.992;2023-05-10T16:15:48;19.85;;;6.22;;
19482;SDS011;9882;51.166;6.992;2023-05-10T16:18:17;16.85;;;5.97;;
19482;SDS011;9882;51.166;6.992;2023-05-10T16:20:47;17.65;;;6.63;;
19482;SDS011;9882;51.166;6.992;2023-05-10T16:23:16;12.50;;;5.15;;
19482;SDS011;9882;51.166;6.992;2023-05-10T16:25:45;16.40;;;5.65;;
19482;SDS011;9882;51.166;6.992;2023-05-10T16:28:13;21.38;;;6.85;;
19482;SDS011;9882;51.166;6.992;2023-05-10T16:30:42;18.23;;;5.43;;
19482;SDS011;9882;51.166;6.992;2023-05-10T16:33:10;14.93;;;5.57;;
19482;SDS011;9882;51.166;6.992;2023-05-10T16:35:39;19.45;;;6.38;;
19482;SDS011;9882;51.166;6.992;2023-05-10T16:38:09;20.35;;;6.15;;
19482;SDS011;9882;51.166;6.992;2023-05-10T16:40:38;15.35;;;6.18;;
19482;SDS011;9882;51.166;6.992;2023-05-10T16:43:06;14.20;;;5.78;;
19482;SDS011;9882;51.166;6.992;2023-05-10T16:45:35;14.63;;;6.00;;
19482;SDS011;9882;51.166;6.992;2023-05-10T16:48:04;19.73;;;6.13;;
19482;SDS011;9882;51.166;6.992;2023-05-10T16:50:33;22.08;;;6.38;;
19482;SDS011;9882;51.166;6.992;2023-05-10T16:53:01;18.02;;;6.70;;
19482;SDS011;9882;51.166;6.992;2023-05-10T16:55:31;14.77;;;5.43;;
19482;SDS011;9882;51.166;6.992;2023-05-10T16:57:59;16.67;;;5.75;;
19482;SDS011;9882;51.166;6.992;2023-05-10T17:00:28;17.35;;;5.65;;
19482;SDS011;9882;51.166;6.992;2023-05-10T17:02:57;17.05;;;5.60;;
19482;SDS011;9882;51.166;6.992;2023-05-10T17:05:25;15.73;;;5.78;;
19482;SDS011;9882;51.166;6.992;2023-05-10T17:07:54;17.38;;;5.70;;
19482;SDS011;9882;51.166;6.992;2023-05-10T17:10:22;21.45;;;7.20;;
19482;SDS011;9882;51.166;6.992;2023-05-10T17:12:53;18.65;;;6.82;;